sensor_id;sensor_type;location;lat;lon;timestamp;pressure;altitude;pressure_sealevel;temperature;humidity
63088;BME280;49173;43.164;27.786;2023-02-12T00:00:42;101518.59;;;-0.87;56.54
63088;BME280;49173;43.164;27.786;2023-02-12T00:03:09;101521.25;;;-0.87;56.13
63088;BME280;49173;43.164;27.786;2023-02-12T00:05:39;101519.47;;;-0.88;56.23
63088;BME280;49173;43.164;27.786;2023-02-12T00:08:07;101524.75;;;-0.89;55.63
63088;BME280;49173;43.164;27.786;2023-02-12T00:10:34;101516.84;;;-0.88;55.91
63088;BME280;49173;43.164;27.786;2023-02-12T00:13:00;101513.31;;;-0.90;56.72
63088;BME280;49173;43.164;27.786;2023-02-12T00:15:26;101512.44;;;-0.89;57.26
63088;BME280;49173;43.164;27.786;2023-02-12T00:17:52;101514.16;;;-0.92;57.17
63088;BME280;49173;43.164;27.786;2023-02-12T00:20:18;101505.34;;;-0.97;57.86
63088;BME280;49173;43.164;27.786;2023-02-12T00:22:44;101503.56;;;-0.98;58.01
63088;BME280;49173;43.164;27.786;2023-02-12T00:25:10;101511.41;;;-1.03;57.91
63088;BME280;49173;43.164;27.786;2023-02-12T00:27:38;101505.25;;;-1.05;57.49
63088;BME280;49173;43.164;27.786;2023-02-12T00:30:06;101509.59;;;-1.10;57.29
63088;BME280;49173;43.164;27.786;2023-02-12T00:32:32;101517.50;;;-1.10;57.26
63088;BME280;49173;43.164;27.786;2023-02-12T00:34:59;101504.31;;;-1.10;57.44
63088;BME280;49173;43.164;27.786;2023-02-12T00:37:25;101503.44;;;-1.07;58.47
63088;BME280;49173;43.164;27.786;2023-02-12T00:39:51;101502.56;;;-1.08;58.48
63088;BME280;49173;43.164;27.786;2023-02-12T00:42:17;101502.56;;;-1.09;58.61
63088;BME280;49173;43.164;27.786;2023-02-12T00:44:42;101505.19;;;-1.13;58.61
63088;BME280;49173;43.164;27.786;2023-02-12T00:47:08;101506.88;;;-1.15;59.05
63088;BME280;49173;43.164;27.786;2023-02-12T00:49:34;101506.84;;;-1.19;59.49
63088;BME280;49173;43.164;27.786;2023-02-12T00:52:03;101507.69;;;-1.20;59.16
63088;BME280;49173;43.164;27.786;2023-02-12T00:54:30;101498.06;;;-1.20;58.88
63088;BME280;49173;43.164;27.786;2023-02-12T00:56:56;101493.69;;;-1.19;59.00
63088;BME280;49173;43.164;27.786;2023-02-12T00:59:23;101492.81;;;-1.20;59.43
63088;BME280;49173;43.164;27.786;2023-02-12T01:01:50;101495.44;;;-1.20;59.24
63088;BME280;49173;43.164;27.786;2023-02-12T01:04:17;101492.81;;;-1.20;59.48
63088;BME280;49173;43.164;27.786;2023-02-12T01:06:43;101490.13;;;-1.23;59.40
63088;BME280;49173;43.164;27.786;2023-02-12T01:09:09;101484.88;;;-1.21;59.64
63088;BME280;49173;43.164;27.786;2023-02-12T01:11:35;101482.22;;;-1.23;59.89
63088;BME280;49173;43.164;27.786;2023-02-12T01:14:02;101477.84;;;-1.22;59.71
63088;BME280;49173;43.164;27.786;2023-02-12T01:16:28;101476.09;;;-1.20;59.23
63088;BME280;49173;43.164;27.786;2023-02-12T01:18:56;101478.78;;;-1.17;58.66
63088;BME280;49173;43.164;27.786;2023-02-12T01:21:25;101473.53;;;-1.16;58.52
63088;BME280;49173;43.164;27.786;2023-02-12T01:23:51;101478.84;;;-1.11;58.66
63088;BME280;49173;43.164;27.786;2023-02-12T01:26:18;101474.47;;;-1.09;58.70
63088;BME280;49173;43.164;27.786;2023-02-12T01:28:49;101471.84;;;-1.07;58.72
63088;BME280;49173;43.164;27.786;2023-02-12T01:31:18;101466.56;;;-1.07;58.51
63088;BME280;49173;43.164;27.786;2023-02-12T01:33:50;101479.75;;;-1.09;58.18
63088;BME280;49173;43.164;27.786;2023-02-12T01:36:16;101474.47;;;-1.09;58.07
63088;BME280;49173;43.164;27.786;2023-02-12T01:38:42;101470.06;;;-1.10;57.65
63088;BME280;49173;43.164;27.786;2023-02-12T01:41:12;101467.50;;;-1.04;57.71
63088;BME280;49173;43.164;27.786;2023-02-12T01:43:38;101463.13;;;-1.00;57.76
63088;BME280;49173;43.164;27.786;2023-02-12T01:46:06;101470.22;;;-0.98;57.70
63088;BME280;49173;43.164;27.786;2023-02-12T01:48:44;101466.69;;;-0.98;57.82
63088;BME280;49173;43.164;27.786;2023-02-12T01:51:16;101465.81;;;-0.97;57.57
63088;BME280;49173;43.164;27.786;2023-02-12T01:53:50;101462.31;;;-0.98;57.29
63088;BME280;49173;43.164;27.786;2023-02-12T01:56:17;101460.50;;;-0.99;57.05
63088;BME280;49173;43.164;27.786;2023-02-12T01:58:44;101453.50;;;-0.98;57.32
63088;BME280;49173;43.164;27.786;2023-02-12T02:01:18;101457.03;;;-0.95;57.30
63088;BME280;49173;43.164;27.786;2023-02-12T02:03:48;101457.06;;;-0.92;56.92
63088;BME280;49173;43.164;27.786;2023-02-12T02:06:18;101460.63;;;-0.90;56.94
63088;BME280;49173;43.164;27.786;2023-02-12T02:08:44;101465.88;;;-0.90;56.95
63088;BME280;49173;43.164;27.786;2023-02-12T02:11:11;101450.88;;;-0.97;56.59
63088;BME280;49173;43.164;27.786;2023-02-12T02:13:56;101462.31;;;-0.95;56.43
63088;BME280;49173;43.164;27.786;2023-02-12T02:17:06;101448.28;;;-0.94;56.32
63088;BME280;49173;43.164;27.786;2023-02-12T02:22:42;101455.31;;;-0.93;56.43
63088;BME280;49173;43.164;27.786;2023-02-12T02:34:14;101434.22;;;-0.96;56.65
63088;BME280;49173;43.164;27.786;2023-02-12T02:36:46;101439.47;;;-0.96;56.96
63088;BME280;49173;43.164;27.786;2023-02-12T02:41:56;101437.66;;;-1.00;56.69
63088;BME280;49173;43.164;27.786;2023-02-12T02:44:52;101441.19;;;-1.01;56.69
63088;BME280;49173;43.164;27.786;2023-02-12T02:47:20;101446.50;;;-0.98;56.94
63088;BME280;49173;43.164;27.786;2023-02-12T02:49:56;101449.09;;;-0.99;57.51
63088;BME280;49173;43.164;27.786;2023-02-12T02:52:34;101446.44;;;-0.99;57.29
63088;BME280;49173;43.164;27.786;2023-02-12T02:55:05;101454.41;;;-0.98;57.21
63088;BME280;49173;43.164;27.786;2023-02-12T02:57:44;101450.00;;;-0.96;57.30
63088;BME280;49173;43.164;27.786;2023-02-12T03:02:39;101448.25;;;-0.95;57.98
63088;BME280;49173;43.164;27.786;2023-02-12T03:05:41;101447.38;;;-0.94;57.93
63088;BME280;49173;43.164;27.786;2023-02-12T03:08:26;101442.97;;;-0.97;57.30
63088;BME280;49173;43.164;27.786;2023-02-12T03:11:29;101453.50;;;-0.98;56.82
63088;BME280;49173;43.164;27.786;2023-02-12T03:19:19;101452.59;;;-0.99;56.98
63088;BME280;49173;43.164;27.786;2023-02-12T03:21:55;101456.13;;;-1.00;56.47
63088;BME280;49173;43.164;27.786;2023-02-12T03:24:28;101463.13;;;-1.00;56.58
63088;BME280;49173;43.164;27.786;2023-02-12T03:29:31;101454.34;;;-1.04;56.68
63088;BME280;49173;43.164;27.786;2023-02-12T03:35:18;101459.63;;;-1.01;57.26
63088;BME280;49173;43.164;27.786;2023-02-12T03:37:55;101462.25;;;-1.01;57.93
63088;BME280;49173;43.164;27.786;2023-02-12T03:40:28;101460.50;;;-1.02;58.14
63088;BME280;49173;43.164;27.786;2023-02-12T03:43:24;101457.84;;;-1.02;58.45
63088;BME280;49173;43.164;27.786;2023-02-12T03:45:59;101458.69;;;-1.06;58.53
63088;BME280;49173;43.164;27.786;2023-02-12T03:48:34;101462.19;;;-1.07;58.71
63088;BME280;49173;43.164;27.786;2023-02-12T03:53:56;101460.41;;;-1.09;58.58
63088;BME280;49173;43.164;27.786;2023-02-12T03:56:32;101468.31;;;-1.08;59.04
63088;BME280;49173;43.164;27.786;2023-02-12T03:58:59;101456.03;;;-1.09;59.41
63088;BME280;49173;43.164;27.786;2023-02-12T04:01:26;101463.06;;;-1.08;59.10
63088;BME280;49173;43.164;27.786;2023-02-12T04:03:52;101463.94;;;-1.09;59.38
63088;BME280;49173;43.164;27.786;2023-02-12T04:06:21;101459.53;;;-1.08;59.47
63088;BME280;49173;43.164;27.786;2023-02-12T04:08:48;101458.66;;;-1.09;59.86
63088;BME280;49173;43.164;27.786;2023-02-12T04:11:45;101456.91;;;-1.08;60.81
63088;BME280;49173;43.164;27.786;2023-02-12T04:14:32;101468.38;;;-1.03;61.74
63088;BME280;49173;43.164;27.786;2023-02-12T04:17:09;101471.09;;;-0.94;62.28
63088;BME280;49173;43.164;27.786;2023-02-12T04:34:09;101465.91;;;-0.88;62.21
63088;BME280;49173;43.164;27.786;2023-02-12T04:36:48;101469.41;;;-0.88;62.38
63088;BME280;49173;43.164;27.786;2023-02-12T04:39:22;101481.72;;;-0.87;62.67
63088;BME280;49173;43.164;27.786;2023-02-12T04:41:50;101487.84;;;-0.89;62.50
63088;BME280;49173;43.164;27.786;2023-02-12T04:44:28;101494.00;;;-0.86;62.58
63088;BME280;49173;43.164;27.786;2023-02-12T04:46:55;101495.81;;;-0.85;62.92
63088;BME280;49173;43.164;27.786;2023-02-12T04:49:22;101497.53;;;-0.87;63.22
63088;BME280;49173;43.164;27.786;2023-02-12T04:51:48;101499.31;;;-0.84;63.42
63088;BME280;49173;43.164;27.786;2023-02-12T04:54:16;101498.41;;;-0.86;63.64
63088;BME280;49173;43.164;27.786;2023-02-12T04:56:42;101501.91;;;-0.87;63.70
63088;BME280;49173;43.164;27.786;2023-02-12T04:59:08;101497.50;;;-0.88;63.94
63088;BME280;49173;43.164;27.786;2023-02-12T05:01:35;101497.50;;;-0.90;64.16
63088;BME280;49173;43.164;27.786;2023-02-12T05:04:01;101492.25;;;-0.90;64.19
63088;BME280;49173;43.164;27.786;2023-02-12T05:06:27;101491.34;;;-0.90;64.27
63088;BME280;49173;43.164;27.786;2023-02-12T05:08:56;101497.50;;;-0.90;64.25
63088;BME280;49173;43.164;27.786;2023-02-12T05:11:22;101514.19;;;-0.91;64.29
63088;BME280;49173;43.164;27.786;2023-02-12T05:13:50;101514.13;;;-0.95;64.23
63088;BME280;49173;43.164;27.786;2023-02-12T05:16:19;101510.56;;;-1.00;64.12
63088;BME280;49173;43.164;27.786;2023-02-12T05:18:52;101514.94;;;-1.04;64.20
63088;BME280;49173;43.164;27.786;2023-02-12T05:21:21;101520.19;;;-1.02;64.26
63088;BME280;49173;43.164;27.786;2023-02-12T05:23:47;101525.47;;;-1.02;64.43
63088;BME280;49173;43.164;27.786;2023-02-12T05:26:20;101531.59;;;-1.05;64.70
63088;BME280;49173;43.164;27.786;2023-02-12T05:28:47;101533.31;;;-1.08;64.88
63088;BME280;49173;43.164;27.786;2023-02-12T05:31:17;101540.31;;;-1.09;65.24
63088;BME280;49173;43.164;27.786;2023-02-12T05:33:46;101550.00;;;-1.08;65.48
63088;BME280;49173;43.164;27.786;2023-02-12T05:36:18;101555.31;;;-1.05;65.60
63088;BME280;49173;43.164;27.786;2023-02-12T05:38:51;101558.84;;;-1.01;65.98
63088;BME280;49173;43.164;27.786;2023-02-12T05:41:21;101555.34;;;-1.02;66.20
63088;BME280;49173;43.164;27.786;2023-02-12T05:43:49;101554.47;;;-0.99;66.53
63088;BME280;49173;43.164;27.786;2023-02-12T05:46:17;101560.69;;;-0.96;66.42
63088;BME280;49173;43.164;27.786;2023-02-12T05:48:47;101566.84;;;-0.92;66.71
63088;BME280;49173;43.164;27.786;2023-02-12T05:51:16;101571.28;;;-0.90;66.38
63088;BME280;49173;43.164;27.786;2023-02-12T05:53:46;101560.78;;;-0.87;66.94
63088;BME280;49173;43.164;27.786;2023-02-12T05:56:24;101569.59;;;-0.83;67.43
63088;BME280;49173;43.164;27.786;2023-02-12T05:59:01;101573.16;;;-0.78;67.37
63088;BME280;49173;43.164;27.786;2023-02-12T06:01:34;101577.63;;;-0.71;67.52
63088;BME280;49173;43.164;27.786;2023-02-12T06:04:03;101584.78;;;-0.62;67.83
63088;BME280;49173;43.164;27.786;2023-02-12T06:06:31;101582.19;;;-0.56;68.62
63088;BME280;49173;43.164;27.786;2023-02-12T06:08:59;101584.88;;;-0.50;68.07
63088;BME280;49173;43.164;27.786;2023-02-12T06:11:27;101587.56;;;-0.44;68.27
63088;BME280;49173;43.164;27.786;2023-02-12T06:13:55;101592.00;;;-0.40;68.21
63088;BME280;49173;43.164;27.786;2023-02-12T06:16:25;101589.44;;;-0.34;68.60
63088;BME280;49173;43.164;27.786;2023-02-12T06:18:53;101592.13;;;-0.28;68.66
63088;BME280;49173;43.164;27.786;2023-02-12T06:21:25;101603.59;;;-0.22;68.47
63088;BME280;49173;43.164;27.786;2023-02-12T06:23:53;101593.09;;;-0.16;68.85
63088;BME280;49173;43.164;27.786;2023-02-12T06:26:21;101604.63;;;-0.05;68.67
63088;BME280;49173;43.164;27.786;2023-02-12T06:28:48;101601.16;;;0.01;68.51
63088;BME280;49173;43.164;27.786;2023-02-12T06:33:47;101608.28;;;0.14;68.67
63088;BME280;49173;43.164;27.786;2023-02-12T06:36:14;101593.38;;;0.20;68.58
63088;BME280;49173;43.164;27.786;2023-02-12T06:38:41;101599.59;;;0.27;68.41
63088;BME280;49173;43.164;27.786;2023-02-12T06:41:09;101598.75;;;0.33;68.64
63088;BME280;49173;43.164;27.786;2023-02-12T06:43:40;101622.56;;;0.42;68.26
63088;BME280;49173;43.164;27.786;2023-02-12T06:46:08;101614.69;;;0.45;67.81
63088;BME280;49173;43.164;27.786;2023-02-12T06:48:35;101619.13;;;0.50;68.03
63088;BME280;49173;43.164;27.786;2023-02-12T06:51:14;101620.03;;;0.57;67.63
63088;BME280;49173;43.164;27.786;2023-02-12T06:53:44;101607.75;;;0.64;67.31
63088;BME280;49173;43.164;27.786;2023-02-12T06:56:13;101610.44;;;0.73;67.43
63088;BME280;49173;43.164;27.786;2023-02-12T06:58:45;101616.66;;;0.82;67.24
63088;BME280;49173;43.164;27.786;2023-02-12T07:01:17;101614.91;;;0.89;67.08
63088;BME280;49173;43.164;27.786;2023-02-12T07:04:01;101613.19;;;0.97;66.71
63088;BME280;49173;43.164;27.786;2023-02-12T07:06:29;101614.97;;;1.03;66.69
63088;BME280;49173;43.164;27.786;2023-02-12T07:08:56;101621.19;;;1.11;66.53
63088;BME280;49173;43.164;27.786;2023-02-12T07:11:28;101610.63;;;1.19;66.90
63088;BME280;49173;43.164;27.786;2023-02-12T07:13:57;101608.91;;;1.31;66.62
63088;BME280;49173;43.164;27.786;2023-02-12T07:16:25;101613.34;;;1.35;66.42
63088;BME280;49173;43.164;27.786;2023-02-12T07:18:53;101616.00;;;1.43;65.85
63088;BME280;49173;43.164;27.786;2023-02-12T07:21:23;101618.66;;;1.49;65.58
63088;BME280;49173;43.164;27.786;2023-02-12T07:23:51;101615.13;;;1.52;65.49
63088;BME280;49173;43.164;27.786;2023-02-12T07:26:22;101614.28;;;1.56;65.02
63088;BME280;49173;43.164;27.786;2023-02-12T07:28:49;101626.59;;;1.61;65.05
63088;BME280;49173;43.164;27.786;2023-02-12T07:31:21;101628.38;;;1.69;65.24
63088;BME280;49173;43.164;27.786;2023-02-12T07:33:54;101629.28;;;1.74;65.37
63088;BME280;49173;43.164;27.786;2023-02-12T07:36:28;101629.28;;;1.81;64.67
63088;BME280;49173;43.164;27.786;2023-02-12T07:38:57;101634.56;;;1.83;64.53
63088;BME280;49173;43.164;27.786;2023-02-12T07:41:34;101633.69;;;1.82;64.47
63088;BME280;49173;43.164;27.786;2023-02-12T07:44:07;101637.25;;;1.84;64.65
63088;BME280;49173;43.164;27.786;2023-02-12T07:46:40;101638.13;;;1.86;64.54
63088;BME280;49173;43.164;27.786;2023-02-12T07:49:18;101645.22;;;1.90;64.29
63088;BME280;49173;43.164;27.786;2023-02-12T07:51:52;101646.97;;;1.98;64.12
63088;BME280;49173;43.164;27.786;2023-02-12T07:54:24;101642.53;;;2.03;64.13
63088;BME280;49173;43.164;27.786;2023-02-12T07:56:50;101650.50;;;2.09;63.89
63088;BME280;49173;43.164;27.786;2023-02-12T07:59:18;101650.50;;;2.12;63.61
63088;BME280;49173;43.164;27.786;2023-02-12T08:01:49;101652.28;;;2.13;63.69
63088;BME280;49173;43.164;27.786;2023-02-12T08:04:21;101649.63;;;2.20;63.08
63088;BME280;49173;43.164;27.786;2023-02-12T08:06:56;101656.69;;;2.29;63.21
63088;BME280;49173;43.164;27.786;2023-02-12T08:09:30;101654.91;;;2.36;63.25
63088;BME280;49173;43.164;27.786;2023-02-12T08:11:56;101663.72;;;2.44;62.56
63088;BME280;49173;43.164;27.786;2023-02-12T08:14:27;101669.03;;;2.45;62.35
63088;BME280;49173;43.164;27.786;2023-02-12T08:16:53;101663.75;;;2.47;62.76
63088;BME280;49173;43.164;27.786;2023-02-12T08:19:27;101661.06;;;2.45;62.47
63088;BME280;49173;43.164;27.786;2023-02-12T08:21:55;101667.28;;;2.49;62.60
63088;BME280;49173;43.164;27.786;2023-02-12T08:24:22;101676.97;;;2.55;62.47
63088;BME280;49173;43.164;27.786;2023-02-12T08:26:49;101677.84;;;2.60;62.21
63088;BME280;49173;43.164;27.786;2023-02-12T08:29:19;101675.22;;;2.61;61.75
63088;BME280;49173;43.164;27.786;2023-02-12T08:31:48;101669.88;;;2.66;62.07
63088;BME280;49173;43.164;27.786;2023-02-12T08:34:19;101676.97;;;2.68;62.19
63088;BME280;49173;43.164;27.786;2023-02-12T08:36:48;101677.81;;;2.73;62.02
63088;BME280;49173;43.164;27.786;2023-02-12T08:39:17;101674.28;;;2.78;62.21
63088;BME280;49173;43.164;27.786;2023-02-12T08:41:54;101670.75;;;2.85;61.32
63088;BME280;49173;43.164;27.786;2023-02-12T08:44:20;101670.72;;;2.88;61.42
63088;BME280;49173;43.164;27.786;2023-02-12T08:46:50;101675.16;;;2.90;61.55
63088;BME280;49173;43.164;27.786;2023-02-12T08:49:19;101678.69;;;2.92;61.30
63088;BME280;49173;43.164;27.786;2023-02-12T08:51:51;101678.66;;;2.95;61.37
63088;BME280;49173;43.164;27.786;2023-02-12T08:54:35;101680.44;;;2.99;61.37
63088;BME280;49173;43.164;27.786;2023-02-12T08:57:03;101682.19;;;3.03;61.19
63088;BME280;49173;43.164;27.786;2023-02-12T08:59:29;101684.81;;;3.08;61.75
63088;BME280;49173;43.164;27.786;2023-02-12T09:01:57;101691.00;;;3.13;60.33
63088;BME280;49173;43.164;27.786;2023-02-12T09:04:26;101689.19;;;3.17;60.10
63088;BME280;49173;43.164;27.786;2023-02-12T09:06:52;101690.06;;;3.22;59.93
63088;BME280;49173;43.164;27.786;2023-02-12T09:09:22;101697.13;;;3.34;59.77
63088;BME280;49173;43.164;27.786;2023-02-12T09:11:49;101697.06;;;3.41;59.67
63088;BME280;49173;43.164;27.786;2023-02-12T09:14:18;101690.81;;;3.51;59.58
63088;BME280;49173;43.164;27.786;2023-02-12T09:16:53;101690.75;;;3.65;59.56
63088;BME280;49173;43.164;27.786;2023-02-12T09:19:23;101687.19;;;3.72;59.23
63088;BME280;49173;43.164;27.786;2023-02-12T09:21:51;101693.34;;;3.82;58.36
63088;BME280;49173;43.164;27.786;2023-02-12T09:24:19;101698.66;;;3.82;58.08
63088;BME280;49173;43.164;27.786;2023-02-12T09:26:47;101697.75;;;3.80;58.18
63088;BME280;49173;43.164;27.786;2023-02-12T09:29:13;101698.66;;;3.79;58.08
63088;BME280;49173;43.164;27.786;2023-02-12T09:31:42;101706.66;;;3.76;58.39
63088;BME280;49173;43.164;27.786;2023-02-12T09:34:11;101700.41;;;3.80;58.44
63088;BME280;49173;43.164;27.786;2023-02-12T09:36:37;101703.03;;;3.86;58.63
63088;BME280;49173;43.164;27.786;2023-02-12T09:39:03;101701.22;;;3.94;58.65
63088;BME280;49173;43.164;27.786;2023-02-12T09:44:47;101708.25;;;4.04;58.38
63088;BME280;49173;43.164;27.786;2023-02-12T09:47:20;101704.75;;;3.96;57.91
63088;BME280;49173;43.164;27.786;2023-02-12T09:52:49;101701.09;;;4.14;57.99
63088;BME280;49173;43.164;27.786;2023-02-12T09:55:20;101707.28;;;4.16;57.74
63088;BME280;49173;43.164;27.786;2023-02-12T09:57:48;101706.41;;;4.14;58.17
63088;BME280;49173;43.164;27.786;2023-02-12T10:00:34;101714.44;;;4.05;58.34
63088;BME280;49173;43.164;27.786;2023-02-12T10:03:04;101708.25;;;4.04;58.12
63088;BME280;49173;43.164;27.786;2023-02-12T10:05:50;101708.25;;;4.01;57.85
63088;BME280;49173;43.164;27.786;2023-02-12T10:11:59;101714.56;;;3.83;58.38
63088;BME280;49173;43.164;27.786;2023-02-12T10:17:14;101719.13;;;3.55;59.58
63088;BME280;49173;43.164;27.786;2023-02-12T10:20:03;101716.53;;;3.46;59.71
63088;BME280;49173;43.164;27.786;2023-02-12T10:28:14;101728.03;;;3.36;60.41
63088;BME280;49173;43.164;27.786;2023-02-12T10:30:54;101729.81;;;3.37;60.38
63088;BME280;49173;43.164;27.786;2023-02-12T10:33:35;101733.38;;;3.33;60.50
63088;BME280;49173;43.164;27.786;2023-02-12T10:36:19;101726.34;;;3.21;60.75
63088;BME280;49173;43.164;27.786;2023-02-12T10:38:56;101736.06;;;3.21;60.24
63088;BME280;49173;43.164;27.786;2023-02-12T10:41:26;101726.34;;;3.20;60.38
63088;BME280;49173;43.164;27.786;2023-02-12T10:44:01;101730.75;;;3.22;60.62
63088;BME280;49173;43.164;27.786;2023-02-12T10:46:29;101724.59;;;3.19;60.99
63088;BME280;49173;43.164;27.786;2023-02-12T10:48:59;101725.47;;;3.18;60.72
63088;BME280;49173;43.164;27.786;2023-02-12T10:51:59;101725.44;;;3.24;60.65
63088;BME280;49173;43.164;27.786;2023-02-12T10:54:44;101725.44;;;3.28;60.18
63088;BME280;49173;43.164;27.786;2023-02-12T10:57:28;101731.59;;;3.30;59.47
63088;BME280;49173;43.164;27.786;2023-02-12T11:00:21;101735.13;;;3.34;60.15
63088;BME280;49173;43.164;27.786;2023-02-12T11:05:43;101736.84;;;3.44;59.70
63088;BME280;49173;43.164;27.786;2023-02-12T11:08:40;101736.88;;;3.41;60.16
63088;BME280;49173;43.164;27.786;2023-02-12T11:13:46;101750.16;;;3.46;60.17
63088;BME280;49173;43.164;27.786;2023-02-12T11:16:57;101753.66;;;3.48;60.84
63088;BME280;49173;43.164;27.786;2023-02-12T11:19:29;101744.81;;;3.44;62.11
63088;BME280;49173;43.164;27.786;2023-02-12T11:22:13;101741.28;;;3.45;62.64
63088;BME280;49173;43.164;27.786;2023-02-12T11:24:45;101749.22;;;3.51;62.27
63088;BME280;49173;43.164;27.786;2023-02-12T11:29:44;101740.31;;;3.65;61.90
63088;BME280;49173;43.164;27.786;2023-02-12T11:32:17;101749.16;;;3.65;61.65
63088;BME280;49173;43.164;27.786;2023-02-12T11:37:32;101752.69;;;3.69;61.52
63088;BME280;49173;43.164;27.786;2023-02-12T11:40:05;101754.47;;;3.70;61.68
63088;BME280;49173;43.164;27.786;2023-02-12T11:42:34;101742.03;;;3.73;61.64
63088;BME280;49173;43.164;27.786;2023-02-12T11:45:14;101740.25;;;3.78;60.78
63088;BME280;49173;43.164;27.786;2023-02-12T11:47:44;101737.56;;;3.84;60.94
63088;BME280;49173;43.164;27.786;2023-02-12T11:50:29;101730.44;;;3.96;60.73
63088;BME280;49173;43.164;27.786;2023-02-12T11:53:08;101728.56;;;4.08;60.28
63088;BME280;49173;43.164;27.786;2023-02-12T11:55:40;101730.31;;;4.14;59.81
63088;BME280;49173;43.164;27.786;2023-02-12T11:58:16;101725.91;;;4.10;59.43
63088;BME280;49173;43.164;27.786;2023-02-12T12:00:49;101720.56;;;4.14;59.48
63088;BME280;49173;43.164;27.786;2023-02-12T12:06:34;101729.41;;;4.17;58.07
63088;BME280;49173;43.164;27.786;2023-02-12T12:09:12;101736.50;;;4.18;58.33
63088;BME280;49173;43.164;27.786;2023-02-12T12:17:43;101740.06;;;4.13;57.61
63088;BME280;49173;43.164;27.786;2023-02-12T12:20:38;101731.28;;;4.02;57.30
63088;BME280;49173;43.164;27.786;2023-02-12T12:23:34;101740.19;;;3.91;58.13
63088;BME280;49173;43.164;27.786;2023-02-12T12:26:07;101724.25;;;3.88;58.14
63088;BME280;49173;43.164;27.786;2023-02-12T12:31:33;101747.31;;;3.84;58.64
63088;BME280;49173;43.164;27.786;2023-02-12T12:45:16;101764.16;;;3.77;61.33
63088;BME280;49173;43.164;27.786;2023-02-12T12:47:58;101778.34;;;3.71;61.23
63088;BME280;49173;43.164;27.786;2023-02-12T12:56:33;101789.88;;;3.63;61.70
63088;BME280;49173;43.164;27.786;2023-02-12T13:05:23;101803.09;;;3.73;62.32
63088;BME280;49173;43.164;27.786;2023-02-12T13:08:33;101804.91;;;3.71;63.11
63088;BME280;49173;43.164;27.786;2023-02-12T13:11:28;101803.09;;;3.78;62.53
63088;BME280;49173;43.164;27.786;2023-02-12T13:13:58;101812.00;;;3.68;63.12
63088;BME280;49173;43.164;27.786;2023-02-12T13:16:37;101811.97;;;3.66;63.77
63088;BME280;49173;43.164;27.786;2023-02-12T13:19:19;101817.28;;;3.72;63.76
63088;BME280;49173;43.164;27.786;2023-02-12T13:22:13;101830.56;;;3.77;64.05
63088;BME280;49173;43.164;27.786;2023-02-12T13:27:35;101840.31;;;3.66;64.65
63088;BME280;49173;43.164;27.786;2023-02-12T13:30:40;101842.06;;;3.65;64.81
63088;BME280;49173;43.164;27.786;2023-02-12T13:33:44;101848.28;;;3.66;65.21
63088;BME280;49173;43.164;27.786;2023-02-12T13:36:15;101852.72;;;3.61;65.32
63088;BME280;49173;43.164;27.786;2023-02-12T13:38:55;101848.28;;;3.64;65.10
63088;BME280;49173;43.164;27.786;2023-02-12T13:41:24;101857.13;;;3.63;64.87
63088;BME280;49173;43.164;27.786;2023-02-12T13:49:23;101876.56;;;3.73;65.21
63088;BME280;49173;43.164;27.786;2023-02-12T13:52:24;101886.34;;;3.68;65.82
63088;BME280;49173;43.164;27.786;2023-02-12T14:01:06;101888.09;;;3.64;67.07
63088;BME280;49173;43.164;27.786;2023-02-12T14:03:35;101896.09;;;3.61;67.41
63088;BME280;49173;43.164;27.786;2023-02-12T14:06:17;101904.03;;;3.58;67.78
63088;BME280;49173;43.164;27.786;2023-02-12T14:08:52;101911.13;;;3.51;68.38
63088;BME280;49173;43.164;27.786;2023-02-12T14:11:25;101911.16;;;3.47;68.68
63088;BME280;49173;43.164;27.786;2023-02-12T14:14:01;101913.78;;;3.38;69.16
63088;BME280;49173;43.164;27.786;2023-02-12T14:22:10;101915.56;;;3.40;69.34
63088;BME280;49173;43.164;27.786;2023-02-12T14:24:50;101931.50;;;3.39;69.96
63088;BME280;49173;43.164;27.786;2023-02-12T14:27:28;101928.84;;;3.39;70.09
63088;BME280;49173;43.164;27.786;2023-02-12T14:30:35;101927.97;;;3.41;70.51
63088;BME280;49173;43.164;27.786;2023-02-12T14:35:45;101928.84;;;3.54;70.43
63088;BME280;49173;43.164;27.786;2023-02-12T14:40:48;101934.13;;;3.63;69.91
63088;BME280;49173;43.164;27.786;2023-02-12T14:43:37;101942.97;;;3.56;70.56
63088;BME280;49173;43.164;27.786;2023-02-12T14:48:58;101952.72;;;3.57;71.66
63088;BME280;49173;43.164;27.786;2023-02-12T14:54:12;101950.94;;;3.57;71.84
63088;BME280;49173;43.164;27.786;2023-02-12T14:56:48;101953.59;;;3.54;71.66
63088;BME280;49173;43.164;27.786;2023-02-12T14:59:21;101960.69;;;3.46;71.97
63088;BME280;49173;43.164;27.786;2023-02-12T15:01:48;101973.06;;;3.52;71.78
63088;BME280;49173;43.164;27.786;2023-02-12T15:04:24;101965.97;;;3.45;72.10
63088;BME280;49173;43.164;27.786;2023-02-12T15:06:59;101967.78;;;3.40;72.29
63088;BME280;49173;43.164;27.786;2023-02-12T15:09:39;101962.44;;;3.35;72.77
63088;BME280;49173;43.164;27.786;2023-02-12T15:12:24;101983.66;;;3.30;72.91
63088;BME280;49173;43.164;27.786;2023-02-12T15:15:36;101988.97;;;3.30;73.32
63088;BME280;49173;43.164;27.786;2023-02-12T15:18:26;101999.59;;;3.24;73.35
63088;BME280;49173;43.164;27.786;2023-02-12T15:21:14;102001.34;;;3.24;73.90
63088;BME280;49173;43.164;27.786;2023-02-12T15:26:32;102009.31;;;3.13;73.48
63088;BME280;49173;43.164;27.786;2023-02-12T15:29:03;102019.03;;;3.14;73.58
63088;BME280;49173;43.164;27.786;2023-02-12T15:31:32;102026.13;;;3.18;73.49
63088;BME280;49173;43.164;27.786;2023-02-12T15:34:01;102027.88;;;3.16;73.37
63088;BME280;49173;43.164;27.786;2023-02-12T15:36:31;102034.06;;;3.15;73.73
63088;BME280;49173;43.164;27.786;2023-02-12T15:39:04;102049.09;;;3.12;73.53
63088;BME280;49173;43.164;27.786;2023-02-12T15:44:00;102054.38;;;3.09;73.27